createdAt,value
2019-05-19T00:01:41.682Z,16.20
2019-05-19T00:04:08.685Z,16.10
2019-05-19T00:06:35.723Z,16.10
2019-05-19T00:09:04.185Z,16.10
2019-05-19T00:11:31.116Z,16.10
2019-05-19T00:13:58.036Z,16.10
2019-05-19T00:16:24.954Z,16.10
2019-05-19T00:18:51.890Z,16.10
2019-05-19T00:21:18.913Z,16.10
2019-05-19T00:23:45.960Z,16.10
2019-05-19T00:26:12.848Z,16.10
2019-05-19T00:28:39.876Z,16.10
2019-05-19T00:31:06.838Z,16.10
2019-05-19T00:33:33.849Z,16.10
2019-05-19T00:36:00.841Z,16.00
2019-05-19T00:38:27.807Z,16.00
2019-05-19T00:40:54.747Z,15.90
2019-05-19T00:43:21.719Z,15.90
2019-05-19T00:45:48.708Z,15.80
2019-05-19T00:48:15.676Z,15.80
2019-05-19T00:50:42.752Z,15.80
2019-05-19T00:53:09.679Z,15.80
2019-05-19T00:55:36.881Z,15.80
2019-05-19T00:58:04.892Z,15.80
2019-05-19T01:00:31.936Z,15.70
2019-05-19T01:02:59.017Z,15.80
2019-05-19T01:05:26.023Z,15.80
2019-05-19T01:07:52.982Z,15.90
2019-05-19T01:10:20.155Z,15.90
2019-05-19T01:12:47.188Z,15.90
2019-05-19T01:15:14.540Z,15.90
2019-05-19T01:17:41.419Z,15.90
2019-05-19T01:20:08.654Z,15.90
2019-05-19T01:22:35.589Z,15.90
2019-05-19T01:25:04.158Z,15.80
2019-05-19T01:27:31.140Z,15.80
2019-05-19T01:29:58.149Z,15.80
2019-05-19T01:32:25.198Z,15.80
2019-05-19T01:34:52.246Z,15.80
2019-05-19T01:37:19.287Z,15.80
2019-05-19T01:39:46.346Z,15.80
2019-05-19T01:42:13.350Z,15.70
2019-05-19T01:44:40.412Z,15.70
2019-05-19T01:47:07.308Z,15.70
2019-05-19T01:49:34.331Z,15.70
2019-05-19T01:52:01.408Z,15.70
2019-05-19T01:54:28.402Z,15.70
2019-05-19T01:56:55.471Z,15.60
2019-05-19T01:59:22.394Z,15.60
2019-05-19T02:01:49.429Z,15.50
2019-05-19T02:04:16.515Z,15.50
2019-05-19T02:06:43.526Z,15.40
2019-05-19T02:09:10.470Z,15.40
2019-05-19T02:11:37.568Z,15.40
2019-05-19T02:14:04.606Z,15.50
2019-05-19T02:16:31.703Z,15.50
2019-05-19T02:18:58.823Z,15.40
2019-05-19T02:21:25.851Z,15.30
2019-05-19T02:23:52.715Z,15.30
2019-05-19T02:26:19.593Z,15.30
2019-05-19T02:28:46.667Z,15.30
2019-05-19T02:31:13.656Z,15.30
2019-05-19T02:33:40.698Z,15.30
2019-05-19T02:36:07.693Z,15.20
2019-05-19T02:38:34.656Z,15.20
2019-05-19T02:41:03.609Z,15.20
2019-05-19T02:43:31.749Z,15.20
2019-05-19T02:46:00.357Z,15.20
2019-05-19T02:48:30.099Z,15.20
2019-05-19T02:50:58.767Z,15.20
2019-05-19T02:53:26.374Z,15.10
2019-05-19T02:55:54.383Z,15.10
2019-05-19T02:58:22.168Z,15.10
2019-05-19T03:00:49.090Z,15.10
2019-05-19T03:03:16.076Z,15.10
2019-05-19T03:05:43.139Z,15.10
2019-05-19T03:08:10.141Z,15.20
2019-05-19T03:10:37.422Z,15.20
2019-05-19T03:13:04.452Z,15.20
2019-05-19T03:15:31.493Z,15.20
2019-05-19T03:17:58.450Z,15.20
2019-05-19T03:20:25.426Z,15.20
2019-05-19T03:22:52.703Z,15.20
2019-05-19T03:25:19.687Z,15.20
2019-05-19T03:27:46.732Z,15.20
2019-05-19T03:30:32.318Z,15.30
2019-05-19T03:33:01.303Z,15.20
2019-05-19T03:35:28.269Z,15.20
2019-05-19T03:37:55.325Z,15.20
2019-05-19T03:40:22.306Z,15.20
2019-05-19T03:42:49.712Z,15.10
2019-05-19T03:45:16.718Z,15.10
2019-05-19T03:47:43.625Z,15.10
2019-05-19T03:50:10.583Z,15.10
2019-05-19T03:52:37.637Z,15.10
2019-05-19T03:55:04.737Z,15.10
2019-05-19T03:57:31.784Z,15.10
2019-05-19T03:59:58.677Z,15.10
2019-05-19T04:02:25.638Z,15.10
2019-05-19T04:04:52.584Z,15.10
2019-05-19T04:07:19.751Z,15.10
2019-05-19T04:09:46.768Z,15.10
2019-05-19T04:12:13.860Z,15.10
2019-05-19T04:14:40.918Z,15.10
2019-05-19T04:17:07.949Z,15.00
2019-05-19T04:19:34.901Z,15.00
2019-05-19T04:22:01.904Z,15.00
2019-05-19T04:24:28.996Z,15.00
2019-05-19T04:26:56.037Z,15.00
2019-05-19T04:29:23.102Z,15.00
2019-05-19T04:31:50.106Z,15.10
2019-05-19T04:34:17.025Z,15.10
2019-05-19T04:36:44.133Z,15.10
2019-05-19T04:39:11.216Z,15.10
2019-05-19T04:41:40.301Z,15.10
2019-05-19T04:44:06.969Z,15.10
2019-05-19T04:46:33.994Z,15.10
2019-05-19T04:49:00.994Z,15.10
2019-05-19T04:51:27.963Z,15.10
2019-05-19T04:53:55.041Z,15.10
2019-05-19T04:56:21.917Z,15.10
2019-05-19T04:58:48.912Z,15.10
2019-05-19T05:01:15.880Z,15.20
2019-05-19T05:03:42.797Z,15.30
2019-05-19T05:06:09.863Z,15.30
2019-05-19T05:08:36.898Z,15.30
2019-05-19T05:11:03.953Z,15.30
2019-05-19T05:13:30.852Z,15.40
2019-05-19T05:15:57.943Z,15.40
2019-05-19T05:18:25.042Z,15.50
2019-05-19T05:20:52.088Z,15.50
2019-05-19T05:23:18.990Z,15.50
2019-05-19T05:25:46.129Z,15.50
2019-05-19T05:28:13.235Z,15.50
2019-05-19T05:30:40.239Z,15.50
2019-05-19T05:33:12.984Z,15.60
2019-05-19T05:35:40.060Z,15.60
2019-05-19T05:38:07.515Z,15.60
2019-05-19T05:40:34.593Z,15.70
2019-05-19T05:43:01.676Z,15.60
2019-05-19T05:45:28.734Z,15.60
2019-05-19T05:47:55.866Z,15.70
2019-05-19T05:50:22.950Z,15.70
2019-05-19T05:52:49.986Z,15.80
2019-05-19T05:55:17.000Z,15.90
2019-05-19T05:57:43.959Z,15.90
2019-05-19T06:00:11.661Z,15.90
2019-05-19T06:02:38.677Z,15.90
2019-05-19T06:05:05.904Z,15.90
2019-05-19T06:07:32.851Z,15.90
2019-05-19T06:09:59.797Z,16.00
2019-05-19T06:12:26.698Z,16.00
2019-05-19T06:14:53.944Z,16.00
2019-05-19T06:17:23.541Z,16.00
2019-05-19T06:19:53.438Z,16.00
2019-05-19T06:22:20.436Z,16.00
2019-05-19T06:24:47.377Z,16.10
2019-05-19T06:27:14.479Z,16.10
2019-05-19T06:29:41.564Z,16.20
2019-05-19T06:32:12.986Z,16.20
2019-05-19T06:34:39.957Z,16.20
2019-05-19T06:37:07.037Z,16.30
2019-05-19T06:39:33.965Z,16.30
2019-05-19T06:42:01.101Z,16.40
2019-05-19T06:44:28.229Z,16.50
2019-05-19T06:46:55.224Z,16.60
2019-05-19T06:49:23.692Z,16.70
2019-05-19T06:51:50.565Z,16.80
2019-05-19T06:54:17.782Z,17.10
2019-05-19T06:56:44.809Z,17.40
2019-05-19T06:59:11.858Z,18.00
2019-05-19T07:01:38.761Z,18.80
2019-05-19T07:04:05.797Z,19.10
2019-05-19T07:06:34.283Z,19.40
2019-05-19T07:09:01.545Z,19.70
2019-05-19T07:11:28.977Z,20.00
2019-05-19T07:13:56.581Z,20.60
2019-05-19T07:16:24.173Z,20.90
2019-05-19T07:18:51.169Z,21.20
2019-05-19T07:21:18.362Z,21.50
2019-05-19T07:23:45.511Z,22.40
2019-05-19T07:26:12.538Z,23.60
2019-05-19T07:28:40.073Z,23.80
2019-05-19T07:31:07.181Z,23.70
2019-05-19T07:33:34.673Z,23.10
2019-05-19T07:36:01.708Z,22.50
2019-05-19T07:38:28.709Z,22.10
2019-05-19T07:40:55.997Z,22.10
2019-05-19T07:43:23.071Z,22.20
2019-05-19T07:45:50.115Z,22.10
2019-05-19T07:48:17.111Z,21.80
2019-05-19T07:50:44.117Z,21.60
2019-05-19T07:53:11.220Z,21.50
2019-05-19T07:55:38.287Z,21.50
2019-05-19T07:58:05.292Z,21.40
2019-05-19T08:00:32.553Z,21.40
2019-05-19T08:02:59.844Z,21.50
2019-05-19T08:05:27.081Z,21.70
2019-05-19T08:07:54.396Z,22.40
2019-05-19T08:10:21.639Z,23.00
2019-05-19T08:12:48.721Z,23.00
2019-05-19T08:15:18.520Z,22.90
2019-05-19T08:17:45.613Z,23.00
2019-05-19T08:20:13.029Z,23.30
2019-05-19T08:22:40.113Z,24.10
2019-05-19T08:25:07.361Z,24.70
2019-05-19T08:27:34.509Z,24.70
2019-05-19T08:30:01.552Z,24.70
2019-05-19T08:32:28.604Z,24.40
2019-05-19T08:34:55.692Z,24.00
2019-05-19T08:37:22.738Z,23.90
2019-05-19T08:39:49.688Z,23.60
2019-05-19T08:42:16.802Z,23.60
2019-05-19T08:44:43.790Z,23.70
2019-05-19T08:47:10.936Z,23.90
2019-05-19T08:49:38.007Z,23.70
2019-05-19T08:52:05.056Z,23.30
2019-05-19T08:54:32.423Z,23.60
2019-05-19T08:56:59.651Z,23.90
2019-05-19T08:59:27.159Z,24.10
2019-05-19T09:01:54.885Z,24.40
2019-05-19T09:04:22.041Z,25.00
2019-05-19T09:06:49.064Z,25.20
2019-05-19T09:09:16.189Z,25.50
2019-05-19T09:11:43.292Z,25.90
2019-05-19T09:14:10.426Z,25.80
2019-05-19T09:16:37.422Z,25.50
2019-05-19T09:19:04.365Z,25.40
2019-05-19T09:21:31.582Z,25.00
2019-05-19T09:23:59.348Z,24.60
2019-05-19T09:26:26.673Z,24.30
2019-05-19T09:28:53.682Z,24.20
2019-05-19T09:31:22.675Z,24.10
2019-05-19T09:33:49.567Z,23.90
2019-05-19T09:36:16.763Z,23.60
2019-05-19T09:38:47.052Z,23.50
2019-05-19T09:41:14.035Z,23.50
2019-05-19T09:43:41.252Z,23.40
2019-05-19T09:46:08.364Z,23.50
2019-05-19T09:48:35.494Z,23.50
2019-05-19T09:51:02.465Z,23.50
2019-05-19T09:53:29.622Z,23.30
2019-05-19T09:55:56.488Z,23.20
2019-05-19T09:58:23.574Z,23.10
2019-05-19T10:00:50.729Z,23.20
2019-05-19T10:03:19.633Z,23.30
2019-05-19T10:05:49.683Z,23.30
2019-05-19T10:08:27.800Z,23.20
2019-05-19T10:11:50.342Z,23.20
2019-05-19T10:14:17.718Z,23.30
2019-05-19T10:16:44.884Z,23.40
2019-05-19T10:19:11.910Z,23.30
2019-05-19T10:21:38.970Z,23.30
2019-05-19T10:24:05.968Z,23.10
2019-05-19T10:26:33.203Z,23.20
2019-05-19T10:29:00.166Z,23.10
2019-05-19T10:31:27.190Z,23.10
2019-05-19T10:33:54.284Z,23.10
2019-05-19T10:36:21.564Z,22.90
2019-05-19T10:38:48.691Z,22.90
2019-05-19T10:41:15.814Z,22.80
2019-05-19T10:43:42.842Z,22.80
2019-05-19T10:46:10.219Z,22.70
2019-05-19T10:48:37.490Z,22.70
2019-05-19T10:51:04.746Z,22.60
2019-05-19T10:53:31.749Z,22.40
2019-05-19T10:55:58.860Z,22.30
2019-05-19T10:58:25.916Z,22.30
2019-05-19T11:00:53.260Z,22.20
2019-05-19T11:03:20.465Z,22.10
2019-05-19T11:05:47.708Z,22.20
2019-05-19T11:08:14.850Z,22.20
2019-05-19T11:10:41.946Z,22.20
2019-05-19T11:13:09.177Z,22.20
2019-05-19T11:15:36.300Z,22.10
2019-05-19T11:18:06.365Z,22.10
2019-05-19T11:20:32.249Z,22.10
2019-05-19T11:22:59.305Z,22.10
2019-05-19T11:25:33.890Z,22.20
2019-05-19T11:27:55.189Z,22.20
2019-05-19T11:30:22.265Z,22.20
2019-05-19T11:32:49.209Z,22.10
2019-05-19T11:35:16.573Z,22.10
2019-05-19T11:37:43.706Z,22.00
2019-05-19T11:40:10.872Z,22.00
2019-05-19T11:42:37.949Z,22.00
2019-05-19T11:45:07.983Z,21.90
2019-05-19T11:47:36.103Z,21.80
2019-05-19T11:50:03.484Z,21.80
2019-05-19T11:52:30.761Z,21.90
2019-05-19T11:54:58.512Z,22.00
2019-05-19T11:57:25.558Z,22.10
2019-05-19T11:59:52.461Z,22.20
2019-05-19T12:02:19.654Z,22.20
2019-05-19T12:04:46.759Z,22.30
2019-05-19T12:07:13.850Z,22.40
2019-05-19T12:09:40.939Z,22.40
2019-05-19T12:12:08.143Z,22.50
2019-05-19T12:14:35.330Z,22.70
2019-05-19T12:17:02.348Z,22.80
2019-05-19T12:19:29.357Z,22.90
2019-05-19T12:21:56.435Z,23.00
2019-05-19T12:24:23.411Z,23.00
2019-05-19T12:26:50.559Z,23.00
2019-05-19T12:29:17.540Z,23.00
2019-05-19T12:31:44.478Z,23.00
2019-05-19T12:34:11.450Z,22.80
2019-05-19T12:36:38.471Z,22.80
2019-05-19T12:39:06.389Z,22.80
2019-05-19T12:41:33.445Z,22.90
2019-05-19T12:44:00.592Z,23.00
2019-05-19T12:46:27.736Z,23.00
2019-05-19T12:48:54.805Z,23.10
2019-05-19T12:51:21.988Z,23.30
2019-05-19T12:53:48.952Z,23.40
2019-05-19T12:56:16.308Z,23.40
2019-05-19T12:58:43.362Z,23.50
2019-05-19T13:01:10.557Z,23.50
2019-05-19T13:03:37.668Z,23.50
2019-05-19T13:06:04.958Z,23.60
2019-05-19T13:08:32.029Z,23.60
2019-05-19T13:10:59.147Z,23.60
2019-05-19T13:13:26.236Z,23.70
2019-05-19T13:15:54.692Z,23.70
2019-05-19T13:18:21.795Z,23.80
2019-05-19T13:20:48.787Z,23.80
2019-05-19T13:23:15.721Z,23.90
2019-05-19T13:25:43.069Z,24.00
2019-05-19T13:28:10.463Z,24.10
2019-05-19T13:30:37.617Z,24.10
2019-05-19T13:33:05.165Z,24.20
2019-05-19T13:35:32.299Z,24.30
2019-05-19T13:37:59.423Z,24.30
2019-05-19T13:40:27.678Z,24.10
2019-05-19T13:42:55.524Z,24.00
2019-05-19T13:45:22.559Z,23.70
2019-05-19T13:47:49.633Z,23.50
2019-05-19T13:50:16.817Z,23.30
2019-05-19T13:52:43.903Z,23.20
2019-05-19T13:55:11.362Z,23.10
2019-05-19T13:57:38.444Z,23.00
2019-05-19T14:00:07.230Z,23.00
2019-05-19T14:02:34.603Z,23.00
2019-05-19T14:05:01.627Z,22.90
2019-05-19T14:07:31.078Z,23.00
2019-05-19T14:09:58.101Z,23.00
2019-05-19T14:12:25.205Z,23.00
2019-05-19T14:14:52.682Z,23.10
2019-05-19T14:17:19.713Z,23.40
2019-05-19T14:19:47.679Z,23.60
2019-05-19T14:22:16.115Z,23.80
2019-05-19T14:24:43.378Z,23.90
2019-05-19T14:27:12.994Z,23.90
2019-05-19T14:29:39.283Z,23.80
2019-05-19T14:32:06.711Z,23.70
2019-05-19T14:34:33.656Z,23.60
2019-05-19T14:37:00.880Z,23.70
2019-05-19T14:39:28.033Z,23.80
2019-05-19T14:41:56.952Z,23.80
2019-05-19T14:44:23.998Z,23.80
2019-05-19T14:46:51.009Z,23.70
2019-05-19T14:49:18.143Z,23.80
2019-05-19T14:51:45.421Z,23.70
2019-05-19T14:54:12.513Z,23.60
2019-05-19T14:56:39.586Z,23.60
2019-05-19T14:59:06.792Z,23.60
2019-05-19T15:01:33.851Z,23.50
2019-05-19T15:04:00.899Z,23.40
2019-05-19T15:06:27.835Z,23.30
2019-05-19T15:08:55.053Z,23.30
2019-05-19T15:11:22.453Z,23.20
2019-05-19T15:13:50.963Z,23.10
2019-05-19T15:16:20.265Z,23.00
2019-05-19T15:18:50.245Z,23.00
2019-05-19T15:21:17.365Z,22.90
2019-05-19T15:23:44.670Z,22.80
2019-05-19T15:26:11.773Z,22.70
2019-05-19T15:28:38.770Z,22.70
2019-05-19T15:31:06.152Z,22.60
2019-05-19T15:33:38.360Z,22.50
2019-05-19T15:36:02.010Z,22.50
2019-05-19T15:38:29.191Z,22.40
2019-05-19T15:40:56.239Z,22.30
2019-05-19T15:43:23.383Z,22.20
2019-05-19T15:45:50.482Z,22.10
2019-05-19T15:48:17.631Z,22.10
2019-05-19T15:50:44.630Z,22.00
2019-05-19T15:53:11.894Z,21.90
2019-05-19T15:55:38.887Z,21.70
2019-05-19T15:58:16.005Z,21.50
2019-05-19T16:00:34.858Z,21.20
2019-05-19T16:03:02.113Z,21.00
2019-05-19T16:05:29.080Z,20.70
2019-05-19T16:07:56.191Z,20.40
2019-05-19T16:10:23.272Z,20.30
2019-05-19T16:12:50.462Z,20.30
2019-05-19T16:15:17.537Z,20.30
2019-05-19T16:17:44.600Z,20.20
2019-05-19T16:20:11.900Z,20.20
2019-05-19T16:22:38.974Z,20.20
2019-05-19T16:25:06.081Z,20.20
2019-05-19T16:27:33.165Z,20.20
2019-05-19T16:30:00.219Z,20.20
2019-05-19T16:32:27.200Z,20.30
2019-05-19T16:34:54.182Z,20.30
2019-05-19T16:37:21.514Z,20.30
2019-05-19T16:39:48.645Z,20.40
2019-05-19T16:42:15.820Z,20.40
2019-05-19T16:44:42.847Z,20.50
2019-05-19T16:47:09.892Z,20.60
2019-05-19T16:49:36.909Z,20.80
2019-05-19T16:52:04.041Z,21.10
2019-05-19T16:54:33.003Z,21.50
2019-05-19T16:57:00.033Z,21.60
2019-05-19T16:59:27.011Z,21.40
2019-05-19T17:01:53.928Z,21.30
2019-05-19T17:04:21.075Z,21.20
2019-05-19T17:06:48.206Z,21.10
2019-05-19T17:09:15.468Z,21.00
2019-05-19T17:11:42.645Z,21.00
2019-05-19T17:14:09.696Z,21.00
2019-05-19T17:16:36.769Z,21.00
2019-05-19T17:19:03.833Z,21.00
2019-05-19T17:21:30.855Z,21.10
2019-05-19T17:23:57.856Z,21.10
2019-05-19T17:26:25.063Z,21.10
2019-05-19T17:29:00.197Z,21.10
2019-05-19T17:31:20.972Z,21.10
2019-05-19T17:33:47.936Z,21.10
2019-05-19T17:36:15.101Z,21.10
2019-05-19T17:38:42.161Z,21.10
2019-05-19T17:41:09.126Z,21.00
2019-05-19T17:43:36.217Z,21.00
2019-05-19T17:46:03.165Z,20.90
2019-05-19T17:48:30.374Z,20.80
2019-05-19T17:50:57.575Z,20.80
2019-05-19T17:53:24.631Z,20.70
2019-05-19T17:55:52.992Z,20.60
2019-05-19T17:58:20.101Z,20.60
2019-05-19T18:00:47.127Z,20.50
2019-05-19T18:03:19.880Z,20.40
2019-05-19T18:05:47.751Z,20.40
2019-05-19T18:08:15.644Z,20.30
2019-05-19T18:10:42.988Z,20.20
2019-05-19T18:13:10.351Z,20.10
2019-05-19T18:15:37.478Z,20.10
2019-05-19T18:18:04.494Z,20.00
2019-05-19T18:20:31.539Z,19.90
2019-05-19T18:22:58.487Z,19.90
2019-05-19T18:25:25.476Z,19.80
2019-05-19T18:27:55.165Z,19.80
2019-05-19T18:30:26.035Z,19.70
2019-05-19T18:32:53.094Z,19.70
2019-05-19T18:35:20.280Z,19.60
2019-05-19T18:37:47.377Z,19.60
2019-05-19T18:40:15.106Z,19.50
2019-05-19T18:42:42.170Z,19.40
2019-05-19T18:45:12.108Z,19.30
2019-05-19T18:47:39.466Z,19.20
2019-05-19T18:50:07.007Z,19.10
2019-05-19T18:52:34.065Z,19.10
2019-05-19T18:55:01.060Z,19.10
2019-05-19T18:57:28.595Z,19.00
2019-05-19T18:59:55.656Z,19.00
2019-05-19T19:02:22.717Z,19.00
2019-05-19T19:04:49.700Z,18.90
2019-05-19T19:07:16.705Z,18.80
2019-05-19T19:09:44.082Z,18.70
2019-05-19T19:12:11.279Z,18.70
2019-05-19T19:14:38.484Z,18.60
2019-05-19T19:17:05.662Z,18.60
2019-05-19T19:19:32.990Z,18.50
2019-05-19T19:22:00.164Z,18.40
2019-05-19T19:24:27.239Z,18.40
2019-05-19T19:26:55.547Z,18.30
2019-05-19T19:29:22.969Z,18.30
2019-05-19T19:31:49.954Z,18.20
2019-05-19T19:34:17.080Z,18.10
2019-05-19T19:36:44.357Z,18.00
2019-05-19T19:39:11.511Z,18.00
2019-05-19T19:41:38.712Z,18.00
2019-05-19T19:44:05.745Z,18.00
2019-05-19T19:46:32.654Z,18.00
2019-05-19T19:48:59.773Z,17.90
2019-05-19T19:51:27.881Z,17.90
2019-05-19T19:53:55.505Z,17.90
2019-05-19T19:56:22.508Z,17.80
2019-05-19T19:58:49.557Z,17.80
2019-05-19T20:01:16.586Z,17.80
2019-05-19T20:03:43.672Z,17.80
2019-05-19T20:06:10.689Z,17.80
2019-05-19T20:08:37.650Z,17.80
2019-05-19T20:11:04.562Z,17.80
2019-05-19T20:13:31.619Z,17.70
2019-05-19T20:15:58.698Z,17.70
2019-05-19T20:18:25.838Z,17.60
2019-05-19T20:20:52.994Z,17.50
2019-05-19T20:23:20.080Z,17.50
2019-05-19T20:25:47.058Z,17.40
2019-05-19T20:28:14.059Z,17.40
2019-05-19T20:30:41.082Z,17.40
2019-05-19T20:33:08.139Z,17.40
2019-05-19T20:35:38.274Z,17.30
2019-05-19T20:38:05.252Z,17.30
2019-05-19T20:40:32.326Z,17.30
2019-05-19T20:42:59.388Z,17.30
2019-05-19T20:45:26.421Z,17.30
2019-05-19T20:47:53.562Z,17.30
2019-05-19T20:50:20.577Z,17.30
2019-05-19T20:52:47.699Z,17.30
2019-05-19T20:55:15.019Z,17.30
2019-05-19T20:57:42.725Z,17.30
2019-05-19T21:00:09.865Z,17.30
2019-05-19T21:02:37.157Z,17.30
2019-05-19T21:05:05.149Z,17.30
2019-05-19T21:07:32.320Z,17.30
2019-05-19T21:09:59.315Z,17.20
2019-05-19T21:12:26.400Z,17.30
2019-05-19T21:14:53.281Z,17.30
2019-05-19T21:17:20.225Z,17.20
2019-05-19T21:19:47.105Z,17.20
2019-05-19T21:22:14.107Z,17.20
2019-05-19T21:24:41.156Z,17.20
2019-05-19T21:27:08.194Z,17.20
2019-05-19T21:29:35.196Z,17.20
2019-05-19T21:32:02.218Z,17.20
2019-05-19T21:34:29.109Z,17.10
2019-05-19T21:36:56.154Z,17.10
2019-05-19T21:39:23.136Z,17.10
2019-05-19T21:41:50.169Z,17.10
2019-05-19T21:44:17.072Z,17.10
2019-05-19T21:46:44.009Z,17.10
2019-05-19T21:49:10.982Z,17.10
2019-05-19T21:51:38.040Z,17.10
2019-05-19T21:54:04.957Z,17.10
2019-05-19T21:56:31.976Z,17.10
2019-05-19T21:58:58.971Z,17.10
2019-05-19T22:01:25.919Z,17.10
2019-05-19T22:03:52.931Z,17.00
2019-05-19T22:06:21.812Z,17.00
2019-05-19T22:08:48.805Z,17.00
2019-05-19T22:11:15.886Z,16.90
2019-05-19T22:13:43.107Z,16.90
2019-05-19T22:16:13.350Z,16.90
2019-05-19T22:18:38.977Z,16.90
2019-05-19T22:21:08.754Z,16.90
2019-05-19T22:23:35.804Z,16.90
2019-05-19T22:26:02.909Z,16.80
2019-05-19T22:28:29.951Z,16.80
2019-05-19T22:30:56.883Z,16.80
2019-05-19T22:33:23.864Z,16.70
2019-05-19T22:35:51.264Z,16.70
2019-05-19T22:38:18.155Z,16.70
2019-05-19T22:40:45.152Z,16.70
2019-05-19T22:43:12.077Z,16.60
2019-05-19T22:45:39.004Z,16.70
2019-05-19T22:48:06.086Z,16.70
2019-05-19T22:50:33.112Z,16.60
2019-05-19T22:53:00.179Z,16.60
2019-05-19T22:55:27.272Z,16.60
2019-05-19T22:57:54.174Z,16.60
2019-05-19T23:00:21.637Z,16.50
2019-05-19T23:02:48.707Z,16.50
2019-05-19T23:05:15.838Z,16.50
2019-05-19T23:07:42.807Z,16.40
2019-05-19T23:10:13.303Z,16.40
2019-05-19T23:12:40.346Z,16.30
2019-05-19T23:15:08.099Z,16.30
2019-05-19T23:17:36.288Z,16.30
2019-05-19T23:20:03.885Z,16.30
2019-05-19T23:22:30.877Z,16.20
2019-05-19T23:24:57.953Z,16.20
2019-05-19T23:27:28.104Z,16.20
2019-05-19T23:29:55.145Z,16.20
2019-05-19T23:32:22.214Z,16.20
2019-05-19T23:34:49.198Z,16.10
2019-05-19T23:37:16.149Z,16.10
2019-05-19T23:39:43.142Z,16.10
2019-05-19T23:42:10.278Z,16.10
2019-05-19T23:44:37.341Z,16.00
2019-05-19T23:47:04.326Z,16.00
2019-05-19T23:49:31.333Z,16.00
2019-05-19T23:51:58.378Z,16.00
2019-05-19T23:54:25.357Z,15.90
2019-05-19T23:56:52.361Z,15.90
2019-05-19T23:59:19.289Z,15.90
